Time;durP1;ratioP1;P1;durP2;ratioP2;P2;SDS_P1;SDS_P2;PMS_P1;PMS_P2;Temp;Humidity;BMP_temperature;BMP_pressure;BME280_temperature;BME280_humidity;BME280_pressure;Samples;Min_cycle;Max_cycle;Signal;HPM_P1;HPM_P2
2021/08/05 00:25:56;;;;;;;6.32;2.35;;;;;;;;;;5057267;28;20098;-58
2021/08/05 00:28:22;;;;;;;2.33;1.65;;;;;;;;;;5057210;28;20033;-58
2021/08/05 00:30:48;;;;;;;2.95;1.90;;;;;;;;;;5057018;28;20065;-58
2021/08/05 00:33:14;;;;;;;2.80;1.92;;;;;;;;;;5056800;28;20029;-58
2021/08/05 00:35:40;;;;;;;2.90;1.67;;;;;;;;;;5056895;28;20079;-58
2021/08/05 00:38:06;;;;;;;3.17;2.00;;;;;;;;;;5056573;28;20427;-58
2021/08/05 00:40:32;;;;;;;2.53;1.42;;;;;;;;;;5056488;28;20409;-58
2021/08/05 00:42:58;;;;;;;2.50;1.45;;;;;;;;;;5056789;28;20029;-58
2021/08/05 00:45:23;;;;;;;3.08;2.20;;;;;;;;;;5056395;28;20032;-58
2021/08/05 00:47:49;;;;;;;2.67;2.00;;;;;;;;;;5055093;28;20486;-58
2021/08/05 00:50:16;;;;;;;3.58;2.22;;;;;;;;;;5056652;28;20112;-58
2021/08/05 00:52:42;;;;;;;5.93;2.50;;;;;;;;;;5056274;28;20041;-58
2021/08/05 00:55:10;;;;;;;3.42;2.65;;;;;;;;;;5055857;28;20025;-58
2021/08/05 00:57:36;;;;;;;3.05;2.22;;;;;;;;;;5055769;28;20029;-58
2021/08/05 01:00:03;;;;;;;3.03;2.17;;;;;;;;;;5056408;28;20064;-58
2021/08/05 01:02:32;;;;;;;3.40;2.45;;;;;;;;;;5055015;28;20041;-58
2021/08/05 01:04:58;;;;;;;3.95;2.55;;;;;;;;;;5056060;28;20108;-58
2021/08/05 01:07:43;;;;;;;3.10;2.10;;;;;;;;;;5056244;28;20075;-58
2021/08/05 01:10:14;;;;;;;2.70;2.15;;;;;;;;;;5056247;28;20079;-58
2021/08/05 01:12:40;;;;;;;;;;;;;;;;;;5057033;28;20082;-58
2021/08/05 01:15:12;;;;;;;3.58;2.45;;;;;;;;;;5055824;28;19905;-58
2021/08/05 01:17:40;;;;;;;3.45;2.70;;;;;;;;;;5056375;28;20060;-58
2021/08/05 01:20:08;;;;;;;3.85;2.63;;;;;;;;;;5055349;28;20028;-58
2021/08/05 01:22:48;;;;;;;4.78;2.80;;;;;;;;;;5056055;28;20029;-58
2021/08/05 01:25:33;;;;;;;4.82;2.92;;;;;;;;;;5055893;28;20390;-58
2021/08/05 01:28:00;;;;;;;4.55;2.80;;;;;;;;;;5055314;28;20020;-58
2021/08/05 01:30:27;;;;;;;4.15;2.65;;;;;;;;;;5055563;28;20455;-58
2021/08/05 01:32:53;;;;;;;3.72;2.65;;;;;;;;;;5055711;28;20112;-58
2021/08/05 01:35:20;;;;;;;3.15;2.30;;;;;;;;;;5055394;28;20036;-58
2021/08/05 01:37:49;;;;;;;3.80;2.80;;;;;;;;;;5053900;28;20017;-58
2021/08/05 01:40:15;;;;;;;8.00;2.63;;;;;;;;;;5055339;28;20581;-58
2021/08/05 01:42:41;;;;;;;3.90;3.10;;;;;;;;;;5055637;28;20037;-58
2021/08/05 01:45:09;;;;;;;4.03;2.70;;;;;;;;;;5054110;28;20029;-58
2021/08/05 01:47:38;;;;;;;4.45;3.22;;;;;;;;;;5055219;28;20402;-58
2021/08/05 01:50:05;;;;;;;3.90;2.50;;;;;;;;;;5055648;28;20021;-58
2021/08/05 01:52:32;;;;;;;5.63;3.00;;;;;;;;;;5054764;28;20588;-58
2021/08/05 01:54:58;;;;;;;4.65;2.97;;;;;;;;;;5054973;28;20029;-58
2021/08/05 01:57:24;;;;;;;4.40;2.85;;;;;;;;;;5055362;28;20525;-58
2021/08/05 01:59:53;;;;;;;3.30;2.47;;;;;;;;;;5054960;28;20057;-58
2021/08/05 02:02:19;;;;;;;5.00;2.60;;;;;;;;;;5055193;28;20032;-58
2021/08/05 02:04:47;;;;;;;3.78;2.55;;;;;;;;;;5054779;28;20116;-58
2021/08/05 02:07:25;;;;;;;4.30;2.85;;;;;;;;;;5055123;28;20047;-58
2021/08/05 02:10:17;;;;;;;4.10;2.80;;;;;;;;;;5054805;28;20112;-58
2021/08/05 02:12:44;;;;;;;4.10;2.63;;;;;;;;;;5055010;28;20059;-58
2021/08/05 02:15:10;;;;;;;5.68;2.67;;;;;;;;;;5055037;28;20021;-58
2021/08/05 02:17:38;;;;;;;4.93;3.08;;;;;;;;;;5054240;28;20029;-58
2021/08/05 02:20:06;;;;;;;5.10;2.90;;;;;;;;;;5054702;28;20021;-58
2021/08/05 02:22:38;;;;;;;3.50;2.75;;;;;;;;;;5054327;28;20501;-58
2021/08/05 02:25:04;;;;;;;3.58;2.67;;;;;;;;;;5054746;28;20439;-58
2021/08/05 02:27:30;;;;;;;2.92;2.10;;;;;;;;;;5054519;28;20466;-58
2021/08/05 02:29:58;;;;;;;3.88;2.47;;;;;;;;;;5054394;28;20032;-58
2021/08/05 02:32:24;;;;;;;5.70;3.38;;;;;;;;;;5053546;28;20049;-58
2021/08/05 02:34:50;;;;;;;6.22;3.00;;;;;;;;;;5054599;28;20025;-58
2021/08/05 02:37:16;;;;;;;3.15;2.58;;;;;;;;;;5053923;28;20021;-58
2021/08/05 02:39:42;;;;;;;3.97;3.15;;;;;;;;;;5054747;28;20156;-58
2021/08/05 02:42:09;;;;;;;3.70;2.90;;;;;;;;;;5054409;28;20039;-58
2021/08/05 02:44:35;;;;;;;3.65;2.47;;;;;;;;;;5054163;28;20025;-58
2021/08/05 02:47:01;;;;;;;3.60;2.45;;;;;;;;;;5054751;28;20208;-58
2021/08/05 02:49:29;;;;;;;3.58;2.58;;;;;;;;;;5054150;28;20021;-58
2021/08/05 02:51:56;;;;;;;3.88;2.60;;;;;;;;;;5054032;28;20489;-58
2021/08/05 02:54:22;;;;;;;5.18;3.35;;;;;;;;;;5053957;28;20112;-58
2021/08/05 02:56:48;;;;;;;4.38;3.50;;;;;;;;;;5053962;28;20078;-58
2021/08/05 02:59:14;;;;;;;4.10;2.85;;;;;;;;;;5053921;28;20021;-58
2021/08/05 03:01:41;;;;;;;4.88;3.67;;;;;;;;;;5054712;28;20128;-58
2021/08/05 03:04:07;;;;;;;4.53;2.63;;;;;;;;;;5054369;28;20021;-58
2021/08/05 03:06:33;;;;;;;6.00;3.45;;;;;;;;;;5053856;28;20021;-58
2021/08/05 03:08:59;;;;;;;4.50;2.70;;;;;;;;;;5053848;28;20104;-58
2021/08/05 03:11:25;;;;;;;3.88;2.80;;;;;;;;;;5054289;28;20344;-58
2021/08/05 03:13:51;;;;;;;4.50;3.13;;;;;;;;;;5053755;28;20032;-58
2021/08/05 03:16:18;;;;;;;4.90;3.25;;;;;;;;;;5054084;28;20029;-58
2021/08/05 03:18:44;;;;;;;3.47;3.00;;;;;;;;;;5053777;28;20029;-58
2021/08/05 03:21:10;;;;;;;3.63;3.03;;;;;;;;;;5053621;28;20031;-58
2021/08/05 03:23:36;;;;;;;4.07;2.53;;;;;;;;;;5052977;28;20086;-58
2021/08/05 03:26:02;;;;;;;4.43;3.10;;;;;;;;;;5053693;28;20054;-58
2021/08/05 03:28:31;;;;;;;3.80;2.80;;;;;;;;;;5052758;28;20033;-58
2021/08/05 03:30:57;;;;;;;3.15;2.22;;;;;;;;;;5054076;28;20045;-58
2021/08/05 03:33:23;;;;;;;4.35;2.85;;;;;;;;;;5054042;28;20090;-58
2021/08/05 03:35:49;;;;;;;4.82;3.40;;;;;;;;;;5054199;28;20032;-58
2021/08/05 03:38:15;;;;;;;4.72;3.40;;;;;;;;;;5053833;28;20064;-58
2021/08/05 03:40:41;;;;;;;4.97;3.33;;;;;;;;;;5053208;28;20022;-58
2021/08/05 03:43:07;;;;;;;4.60;3.42;;;;;;;;;;5053634;28;20032;-58
2021/08/05 03:45:33;;;;;;;5.05;2.88;;;;;;;;;;5053519;28;20029;-58
2021/08/05 03:47:59;;;;;;;3.65;2.92;;;;;;;;;;5052250;28;20025;-58
2021/08/05 03:50:25;;;;;;;7.18;4.07;;;;;;;;;;5053480;28;20026;-58
2021/08/05 03:52:51;;;;;;;5.55;4.22;;;;;;;;;;5053713;28;20044;-58
2021/08/05 03:55:17;;;;;;;3.78;3.15;;;;;;;;;;5053053;28;20108;-58
2021/08/05 03:57:46;;;;;;;4.50;3.63;;;;;;;;;;5052112;28;20029;-58
2021/08/05 04:00:13;;;;;;;5.22;4.35;;;;;;;;;;5053065;28;20386;-58
2021/08/05 04:02:40;;;;;;;6.32;4.28;;;;;;;;;;5053926;28;20024;-58
2021/08/05 04:05:06;;;;;;;6.18;3.97;;;;;;;;;;5053373;28;20029;-58
2021/08/05 04:07:32;;;;;;;4.72;3.80;;;;;;;;;;5053311;28;20029;-58
2021/08/05 04:09:58;;;;;;;4.53;3.92;;;;;;;;;;5053214;28;20102;-58
2021/08/05 04:12:24;;;;;;;6.68;3.85;;;;;;;;;;5053309;28;20068;-58
2021/08/05 04:14:50;;;;;;;6.80;3.67;;;;;;;;;;5053487;28;20029;-58
2021/08/05 04:17:18;;;;;;;4.78;4.18;;;;;;;;;;5052896;28;20029;-58
2021/08/05 04:19:44;;;;;;;5.35;3.70;;;;;;;;;;5053143;28;20078;-58
2021/08/05 04:22:10;;;;;;;5.05;3.97;;;;;;;;;;5053483;28;20021;-58
2021/08/05 04:24:36;;;;;;;6.45;4.15;;;;;;;;;;5053005;28;20045;-58
2021/08/05 04:27:05;;;;;;;4.47;3.67;;;;;;;;;;5053643;28;20021;-58
2021/08/05 04:29:32;;;;;;;3.53;3.03;;;;;;;;;;5053422;28;20033;-58
2021/08/05 04:31:58;;;;;;;4.95;3.70;;;;;;;;;;5055658;28;20033;-58
2021/08/05 04:34:27;;;;;;;7.07;3.83;;;;;;;;;;5056642;28;20031;-58
2021/08/05 04:36:53;;;;;;;6.43;4.55;;;;;;;;;;5057401;28;20021;-57
2021/08/05 04:39:20;;;;;;;6.90;4.07;;;;;;;;;;5056931;28;20369;-58
2021/08/05 04:41:46;;;;;;;8.05;4.95;;;;;;;;;;5056863;28;20037;-58
2021/08/05 04:44:12;;;;;;;6.07;4.55;;;;;;;;;;5056474;28;20025;-58
2021/08/05 04:46:38;;;;;;;5.60;4.10;;;;;;;;;;5056421;28;20383;-58
2021/08/05 04:49:04;;;;;;;5.70;4.07;;;;;;;;;;5056084;28;20021;-58
2021/08/05 04:51:32;;;;;;;6.95;4.32;;;;;;;;;;5057105;28;20029;-58
2021/08/05 04:54:00;;;;;;;6.65;4.50;;;;;;;;;;5056219;28;20025;-58
2021/08/05 04:56:26;;;;;;;9.13;4.30;;;;;;;;;;5056372;28;20032;-58
2021/08/05 04:58:52;;;;;;;4.80;3.42;;;;;;;;;;5056272;28;20025;-58
2021/08/05 05:01:18;;;;;;;4.93;4.18;;;;;;;;;;5055590;28;20439;-57
2021/08/05 05:03:49;;;;;;;7.47;4.47;;;;;;;;;;5056576;28;20025;-58
2021/08/05 05:06:15;;;;;;;4.93;4.43;;;;;;;;;;5056260;28;20029;-58
2021/08/05 05:08:49;;;;;;;7.50;5.15;;;;;;;;;;5056375;28;20028;-58
2021/08/05 05:11:15;;;;;;;6.63;5.13;;;;;;;;;;5056274;28;20189;-58
2021/08/05 05:13:41;;;;;;;6.28;4.53;;;;;;;;;;5056015;28;20497;-58
2021/08/05 05:16:07;;;;;;;4.45;3.63;;;;;;;;;;5056162;28;20029;-57
2021/08/05 05:18:33;;;;;;;5.45;4.95;;;;;;;;;;5055959;28;20467;-58
2021/08/05 05:20:59;;;;;;;4.57;3.80;;;;;;;;;;5056328;28;20044;-58
2021/08/05 05:23:25;;;;;;;4.38;3.97;;;;;;;;;;5055776;28;20459;-58
2021/08/05 05:25:51;;;;;;;5.43;4.18;;;;;;;;;;5055476;28;20045;-58
2021/08/05 05:28:17;;;;;;;6.00;4.40;;;;;;;;;;5055449;28;20075;-58
2021/08/05 05:30:45;;;;;;;5.35;3.88;;;;;;;;;;5055949;28;20068;-58
2021/08/05 05:33:11;;;;;;;9.25;4.50;;;;;;;;;;5055327;28;20609;-58
2021/08/05 05:35:38;;;;;;;6.28;4.00;;;;;;;;;;5055625;28;20451;-58
2021/08/05 05:38:04;;;;;;;5.47;3.75;;;;;;;;;;5055462;28;20035;-58
2021/08/05 05:40:30;;;;;;;8.30;4.18;;;;;;;;;;5055542;28;20418;-58
2021/08/05 05:43:00;;;;;;;6.53;3.92;;;;;;;;;;5053569;28;20029;-58
2021/08/05 05:45:26;;;;;;;5.68;3.95;;;;;;;;;;5055716;28;20083;-58
2021/08/05 05:47:52;;;;;;;5.90;4.32;;;;;;;;;;5055337;28;20028;-58
2021/08/05 05:50:19;;;;;;;6.15;4.20;;;;;;;;;;5055853;28;20029;-58
2021/08/05 05:52:48;;;;;;;7.38;4.25;;;;;;;;;;5055171;28;20078;-58
2021/08/05 05:55:14;;;;;;;4.65;3.63;;;;;;;;;;5055236;28;20025;-58
2021/08/05 05:57:40;;;;;;;6.32;4.68;;;;;;;;;;5055126;28;20029;-58
2021/08/05 06:00:07;;;;;;;4.53;3.38;;;;;;;;;;5055420;28;20032;-58
2021/08/05 06:02:33;;;;;;;5.93;3.92;;;;;;;;;;5055008;28;20064;-58
2021/08/05 06:04:59;;;;;;;5.60;4.25;;;;;;;;;;5054933;28;20017;-58
2021/08/05 06:07:25;;;;;;;5.72;3.65;;;;;;;;;;5054468;28;20064;-58
2021/08/05 06:09:52;;;;;;;6.93;4.13;;;;;;;;;;5053585;28;20021;-58
2021/08/05 06:12:18;;;;;;;5.55;3.38;;;;;;;;;;5055077;28;20459;-58
2021/08/05 06:14:46;;;;;;;6.35;3.38;;;;;;;;;;5055353;28;20032;-58
2021/08/05 06:17:12;;;;;;;5.68;3.67;;;;;;;;;;5054701;28;20052;-58
2021/08/05 06:19:41;;;;;;;4.57;3.67;;;;;;;;;;5054675;28;20032;-58
2021/08/05 06:22:10;;;;;;;7.18;3.67;;;;;;;;;;5054661;28;20060;-58
2021/08/05 06:24:36;;;;;;;4.82;3.35;;;;;;;;;;5054781;28;20124;-58
2021/08/05 06:27:02;;;;;;;6.93;4.22;;;;;;;;;;5054850;28;20450;-58
2021/08/05 06:29:30;;;;;;;4.45;3.20;;;;;;;;;;5054491;28;20025;-58
2021/08/05 06:31:57;;;;;;;4.38;3.28;;;;;;;;;;5053502;28;20095;-58
2021/08/05 06:34:23;;;;;;;5.45;3.17;;;;;;;;;;5054527;28;20021;-58
2021/08/05 06:36:49;;;;;;;7.10;3.83;;;;;;;;;;5053094;28;20418;-58
2021/08/05 06:39:15;;;;;;;5.47;3.45;;;;;;;;;;5053091;28;20029;-58
2021/08/05 06:41:41;;;;;;;5.60;2.83;;;;;;;;;;5055096;28;20036;-58
2021/08/05 06:44:07;;;;;;;7.30;3.28;;;;;;;;;;5054352;28;20474;-58
2021/08/05 06:46:33;;;;;;;5.88;2.80;;;;;;;;;;5054129;28;20048;-58
2021/08/05 06:49:01;;;;;;;3.67;2.50;;;;;;;;;;5054088;28;20032;-58
2021/08/05 06:51:27;;;;;;;3.85;2.80;;;;;;;;;;5054051;28;20041;-58
2021/08/05 06:53:53;;;;;;;4.28;2.92;;;;;;;;;;5053108;28;20106;-58
2021/08/05 06:56:19;;;;;;;3.58;2.55;;;;;;;;;;5053374;28;20017;-58
2021/08/05 06:58:45;;;;;;;3.90;2.35;;;;;;;;;;5053909;28;20060;-58
2021/08/05 07:01:11;;;;;;;3.28;2.22;;;;;;;;;;5054445;28;20025;-58
2021/08/05 07:03:37;;;;;;;3.15;2.15;;;;;;;;;;5054211;28;20025;-58
2021/08/05 07:06:05;;;;;;;3.83;2.15;;;;;;;;;;5053605;28;20120;-58
2021/08/05 07:08:31;;;;;;;6.72;2.50;;;;;;;;;;5054117;28;20047;-58
2021/08/05 07:10:57;;;;;;;2.83;2.03;;;;;;;;;;5052687;28;20032;-58
2021/08/05 07:13:24;;;;;;;5.97;2.47;;;;;;;;;;5053837;28;20055;-58
2021/08/05 07:15:50;;;;;;;4.90;2.97;;;;;;;;;;5054228;28;20060;-58
2021/08/05 07:18:16;;;;;;;3.58;2.25;;;;;;;;;;5053704;28;20031;-58
2021/08/05 07:20:42;;;;;;;3.78;2.45;;;;;;;;;;5053622;28;20469;-58
2021/08/05 07:23:08;;;;;;;3.45;2.25;;;;;;;;;;5054258;28;20112;-58
2021/08/05 07:25:34;;;;;;;3.50;2.33;;;;;;;;;;5053495;28;20044;-58
2021/08/05 07:28:01;;;;;;;3.95;2.25;;;;;;;;;;5053667;28;20482;-58
2021/08/05 07:30:28;;;;;;;4.30;2.38;;;;;;;;;;5053575;28;20013;-58
2021/08/05 07:32:54;;;;;;;2.72;1.98;;;;;;;;;;5053784;28;20025;-58
2021/08/05 07:35:20;;;;;;;5.80;2.50;;;;;;;;;;5053623;28;20459;-58
2021/08/05 07:37:48;;;;;;;4.78;2.67;;;;;;;;;;5053528;28;20040;-58
2021/08/05 07:40:15;;;;;;;5.75;2.28;;;;;;;;;;5053508;28;20029;-58
2021/08/05 07:42:41;;;;;;;4.55;2.42;;;;;;;;;;5053370;28;20033;-58
2021/08/05 07:45:07;;;;;;;3.88;2.63;;;;;;;;;;5053593;28;20118;-58
2021/08/05 07:47:33;;;;;;;4.43;2.20;;;;;;;;;;5053784;28;20021;-58
2021/08/05 07:49:59;;;;;;;3.90;2.53;;;;;;;;;;5053256;28;20029;-58
2021/08/05 07:52:25;;;;;;;4.72;2.13;;;;;;;;;;5053712;28;20025;-58
2021/08/05 07:54:51;;;;;;;3.33;2.45;;;;;;;;;;5053607;28;20024;-58
2021/08/05 07:57:17;;;;;;;4.95;2.58;;;;;;;;;;5053523;28;20059;-58
2021/08/05 07:59:45;;;;;;;4.50;2.83;;;;;;;;;;5053300;28;20024;-58
2021/08/05 08:02:11;;;;;;;3.60;2.50;;;;;;;;;;5053540;28;20060;-58
2021/08/05 08:04:37;;;;;;;3.58;2.83;;;;;;;;;;5053862;28;20427;-58
2021/08/05 08:07:04;;;;;;;3.75;2.33;;;;;;;;;;5057672;28;20116;-58
2021/08/05 08:09:30;;;;;;;5.07;2.55;;;;;;;;;;5056136;28;20025;-58
2021/08/05 08:11:56;;;;;;;3.47;2.30;;;;;;;;;;5057103;28;20064;-58
2021/08/05 08:14:22;;;;;;;3.47;1.73;;;;;;;;;;5057399;28;20028;-58
2021/08/05 08:16:48;;;;;;;2.83;1.83;;;;;;;;;;5055500;28;20021;-58
2021/08/05 08:19:14;;;;;;;3.58;2.33;;;;;;;;;;5056638;28;20021;-58
2021/08/05 08:21:40;;;;;;;4.15;2.67;;;;;;;;;;5057551;28;20355;-58
2021/08/05 08:24:09;;;;;;;3.92;2.50;;;;;;;;;;5056969;28;20025;-58
2021/08/05 08:26:41;;;;;;;3.15;2.03;;;;;;;;;;5057260;28;20463;-58
2021/08/05 08:29:08;;;;;;;4.13;1.98;;;;;;;;;;5057356;28;20059;-58
2021/08/05 08:31:34;;;;;;;4.28;2.33;;;;;;;;;;5056919;28;20021;-58
2021/08/05 08:34:00;;;;;;;4.18;2.75;;;;;;;;;;5056638;28;20108;-58
2021/08/05 08:36:26;;;;;;;3.38;1.85;;;;;;;;;;5057445;28;20415;-58
2021/08/05 08:38:52;;;;;;;3.95;2.17;;;;;;;;;;5055351;28;20425;-58
2021/08/05 08:41:21;;;;;;;2.60;1.80;;;;;;;;;;5056572;28;20409;-58
2021/08/05 08:43:51;;;;;;;6.10;2.17;;;;;;;;;;5056454;28;20029;-58
2021/08/05 08:46:21;;;;;;;3.33;1.87;;;;;;;;;;5056706;28;20021;-58
2021/08/05 08:48:51;;;;;;;2.88;1.60;;;;;;;;;;5056432;28;20350;-58
2021/08/05 08:51:18;;;;;;;3.03;1.83;;;;;;;;;;5056632;28;20421;-58
2021/08/05 08:53:45;;;;;;;2.38;1.50;;;;;;;;;;5056188;28;20463;-58
2021/08/05 08:56:11;;;;;;;3.97;1.60;;;;;;;;;;5056612;28;20071;-58
2021/08/05 08:58:37;;;;;;;3.50;1.70;;;;;;;;;;5056485;28;20044;-58
2021/08/05 09:01:04;;;;;;;2.85;1.77;;;;;;;;;;5056166;28;20052;-57
2021/08/05 09:03:30;;;;;;;2.75;1.70;;;;;;;;;;5056565;28;20029;-58
2021/08/05 09:05:56;;;;;;;3.05;1.50;;;;;;;;;;5056364;28;20021;-58
2021/08/05 09:08:22;;;;;;;3.15;2.13;;;;;;;;;;5055996;28;20025;-58
2021/08/05 09:10:48;;;;;;;3.10;2.05;;;;;;;;;;5056217;28;20029;-58
2021/08/05 09:13:15;;;;;;;4.72;2.15;;;;;;;;;;5055819;28;20021;-58
2021/08/05 09:15:46;;;;;;;2.50;1.80;;;;;;;;;;5055821;28;20029;-58
2021/08/05 09:18:27;;;;;;;4.50;2.20;;;;;;;;;;5054992;28;20028;-58
2021/08/05 09:21:13;;;;;;;3.92;2.33;;;;;;;;;;5055819;28;20079;-58
2021/08/05 09:24:01;;;;;;;3.30;1.95;;;;;;;;;;5056042;28;20068;-58
2021/08/05 09:26:27;;;;;;;2.42;1.50;;;;;;;;;;5056353;28;20421;-58
2021/08/05 09:28:59;;;;;;;3.00;1.40;;;;;;;;;;5055589;28;20070;-58
2021/08/05 09:31:25;;;;;;;2.63;1.80;;;;;;;;;;5055624;28;20032;-58
2021/08/05 09:33:51;;;;;;;3.15;2.00;;;;;;;;;;5055635;28;20075;-58
2021/08/05 09:36:27;;;;;;;2.85;1.73;;;;;;;;;;5056047;28;20029;-58
2021/08/05 09:38:56;;;;;;;2.38;1.98;;;;;;;;;;5055810;28;20021;-58
2021/08/05 09:41:22;;;;;;;3.78;2.08;;;;;;;;;;5055823;28;20468;-58
2021/08/05 09:43:48;;;;;;;4.07;1.65;;;;;;;;;;5055497;28;20049;-58
2021/08/05 09:46:29;;;;;;;3.70;1.55;;;;;;;;;;5055668;28;20017;-58
2021/08/05 09:48:58;;;;;;;3.47;1.70;;;;;;;;;;5055954;28;20029;-57
2021/08/05 09:51:24;;;;;;;3.30;1.45;;;;;;;;;;5055310;28;20025;-58
2021/08/05 09:54:05;;;;;;;2.30;1.30;;;;;;;;;;5055923;28;20036;-58
2021/08/05 09:56:34;;;;;;;2.97;1.73;;;;;;;;;;5055710;28;20032;-58
2021/08/05 09:59:13;;;;;;;1.55;0.80;;;;;;;;;;5055226;28;20485;-57
2021/08/05 10:01:57;;;;;;;4.63;1.27;;;;;;;;;;5055531;28;20056;-58
2021/08/05 10:04:34;;;;;;;2.13;1.20;;;;;;;;;;5055583;28;20056;-58
2021/08/05 10:07:01;;;;;;;3.58;1.70;;;;;;;;;;5054978;28;20070;-58
2021/08/05 10:09:28;;;;;;;3.10;1.35;;;;;;;;;;5055527;28;20036;-58
2021/08/05 10:12:08;;;;;;;2.28;1.63;;;;;;;;;;5054904;28;20063;-58
2021/08/05 10:14:34;;;;;;;4.13;0.85;;;;;;;;;;5055373;28;20017;-58
2021/08/05 10:17:00;;;;;;;3.80;1.25;;;;;;;;;;5054654;28;20029;-58
2021/08/05 10:19:26;;;;;;;2.63;1.42;;;;;;;;;;5054645;28;20104;-58
2021/08/05 10:21:52;;;;;;;2.45;1.50;;;;;;;;;;5054717;28;20032;-58
2021/08/05 10:24:19;;;;;;;2.10;1.20;;;;;;;;;;5054391;28;20560;-58
2021/08/05 10:26:45;;;;;;;4.85;1.52;;;;;;;;;;5054994;28;20017;-58
2021/08/05 10:29:13;;;;;;;1.73;1.05;;;;;;;;;;5053643;28;20098;-58
2021/08/05 10:31:40;;;;;;;2.58;1.13;;;;;;;;;;5054898;28;20111;-58
2021/08/05 10:34:06;;;;;;;2.15;1.25;;;;;;;;;;5054466;28;20027;-58
2021/08/05 10:36:33;;;;;;;2.40;0.82;;;;;;;;;;5054245;28;20021;-58
2021/08/05 10:38:59;;;;;;;1.65;0.82;;;;;;;;;;5054447;28;20086;-58
2021/08/05 10:41:26;;;;;;;1.65;0.77;;;;;;;;;;5054429;28;20031;-58
2021/08/05 10:43:52;;;;;;;2.33;1.00;;;;;;;;;;5054322;28;20036;-58
2021/08/05 10:46:20;;;;;;;1.50;0.82;;;;;;;;;;5054312;28;20029;-58
2021/08/05 10:48:47;;;;;;;2.83;1.48;;;;;;;;;;5054571;28;20025;-58
2021/08/05 10:51:13;;;;;;;1.23;0.60;;;;;;;;;;5054769;28;20036;-58
2021/08/05 10:53:43;;;;;;;2.55;1.05;;;;;;;;;;5054044;28;20029;-58
2021/08/05 10:56:23;;;;;;;1.73;0.88;;;;;;;;;;5054023;28;20082;-58
2021/08/05 10:59:02;;;;;;;3.47;1.50;;;;;;;;;;5054786;28;20028;-58
2021/08/05 11:01:53;;;;;;;2.67;0.88;;;;;;;;;;5054638;28;20029;-58
2021/08/05 11:04:40;;;;;;;1.90;0.90;;;;;;;;;;5050961;28;20036;-58
2021/08/05 11:07:22;;;;;;;2.40;1.33;;;;;;;;;;5053886;28;20116;-58
2021/08/05 11:09:48;;;;;;;2.13;0.98;;;;;;;;;;5053884;28;20096;-58
2021/08/05 11:12:32;;;;;;;2.00;1.15;;;;;;;;;;5054163;28;20116;-58
2021/08/05 11:14:58;;;;;;;1.77;0.98;;;;;;;;;;5054147;28;20029;-58
2021/08/05 11:17:24;;;;;;;1.25;0.80;;;;;;;;;;5053496;28;20021;-58
2021/08/05 11:20:10;;;;;;;0.98;0.50;;;;;;;;;;5053648;28;20025;-58
2021/08/05 11:22:36;;;;;;;2.15;1.08;;;;;;;;;;5053421;28;20060;-58
2021/08/05 11:25:02;;;;;;;2.42;0.80;;;;;;;;;;5053505;28;20098;-58
2021/08/05 11:27:28;;;;;;;1.67;0.70;;;;;;;;;;5054212;28;20078;-58
2021/08/05 11:29:54;;;;;;;4.50;0.95;;;;;;;;;;5053758;28;20021;-58
2021/08/05 11:32:26;;;;;;;2.00;0.77;;;;;;;;;;5054476;28;20037;-58
2021/08/05 11:34:56;;;;;;;1.58;0.80;;;;;;;;;;5053976;28;20021;-58
2021/08/05 11:37:22;;;;;;;2.17;0.80;;;;;;;;;;5053719;28;20028;-58
2021/08/05 11:39:50;;;;;;;2.35;0.70;;;;;;;;;;5054285;28;20024;-58
2021/08/05 11:42:17;;;;;;;1.85;0.90;;;;;;;;;;5058337;28;20041;-58
2021/08/05 11:44:51;;;;;;;2.22;1.15;;;;;;;;;;5058231;28;20021;-58
2021/08/05 11:47:18;;;;;;;1.92;0.82;;;;;;;;;;5057590;28;20048;-58
2021/08/05 11:49:50;;;;;;;2.50;0.82;;;;;;;;;;5057630;28;20029;-58
2021/08/05 11:52:21;;;;;;;2.30;1.02;;;;;;;;;;5058094;28;20370;-58
2021/08/05 11:54:47;;;;;;;;;;;;;;;;;;5058476;28;20414;-58
2021/08/05 11:57:14;;;;;;;1.65;0.77;;;;;;;;;;5057416;28;19904;-58
2021/08/05 11:59:50;;;;;;;1.50;0.80;;;;;;;;;;5057884;28;20094;-58
2021/08/05 12:02:26;;;;;;;0.88;0.43;;;;;;;;;;5058228;28;20098;-58
2021/08/05 12:04:56;;;;;;;1.50;0.80;;;;;;;;;;5058218;28;20424;-58
2021/08/05 12:07:24;;;;;;;2.30;0.80;;;;;;;;;;5057632;28;20026;-58
2021/08/05 12:09:54;;;;;;;1.33;0.77;;;;;;;;;;5057404;28;20064;-58
2021/08/05 12:12:20;;;;;;;2.13;0.88;;;;;;;;;;5057626;28;20082;-58
2021/08/05 12:14:52;;;;;;;1.40;0.82;;;;;;;;;;5057507;28;20024;-58
2021/08/05 12:17:30;;;;;;;2.20;1.10;;;;;;;;;;5057061;28;20017;-58
2021/08/05 12:19:56;;;;;;;2.53;0.70;;;;;;;;;;5057061;28;20021;-58
2021/08/05 12:22:37;;;;;;;2.05;1.08;;;;;;;;;;5057594;28;20106;-58
2021/08/05 12:25:07;;;;;;;1.27;0.63;;;;;;;;;;5057041;28;20064;-58
2021/08/05 12:27:33;;;;;;;1.75;0.90;;;;;;;;;;5056834;28;20107;-58
2021/08/05 12:30:07;;;;;;;2.05;1.10;;;;;;;;;;5056811;28;20025;-58
2021/08/05 12:32:33;;;;;;;2.00;0.93;;;;;;;;;;5057660;28;20036;-58
2021/08/05 12:34:59;;;;;;;2.67;1.35;;;;;;;;;;5057555;28;20482;-58
2021/08/05 12:37:25;;;;;;;1.50;0.82;;;;;;;;;;5056367;28;20104;-57
2021/08/05 12:39:52;;;;;;;2.30;0.90;;;;;;;;;;5057365;28;20029;-57
2021/08/05 12:42:18;;;;;;;1.63;1.00;;;;;;;;;;5056861;28;20379;-57
2021/08/05 12:44:44;;;;;;;3.65;2.90;;;;;;;;;;5056442;28;20104;-57
2021/08/05 12:47:10;;;;;;;3.40;0.98;;;;;;;;;;5055934;28;20035;-57
2021/08/05 12:49:38;;;;;;;1.38;0.73;;;;;;;;;;5056456;28;20375;-57
2021/08/05 12:52:09;;;;;;;1.50;0.80;;;;;;;;;;5055865;28;20025;-57
2021/08/05 12:54:35;;;;;;;1.70;0.90;;;;;;;;;;5057230;28;20049;-57
2021/08/05 12:57:10;;;;;;;1.55;0.82;;;;;;;;;;5056383;28;20025;-57
2021/08/05 12:59:45;;;;;;;1.48;0.80;;;;;;;;;;5056669;28;20083;-57
2021/08/05 13:02:12;;;;;;;2.22;1.05;;;;;;;;;;5056777;28;20040;-57
2021/08/05 13:04:38;;;;;;;1.58;0.80;;;;;;;;;;5056233;28;20032;-57
2021/08/05 13:07:08;;;;;;;1.23;0.70;;;;;;;;;;5056202;28;20036;-57
2021/08/05 13:09:49;;;;;;;1.73;0.80;;;;;;;;;;5056103;28;20025;-57
2021/08/05 13:12:25;;;;;;;1.38;0.55;;;;;;;;;;5056082;28;20025;-57
2021/08/05 13:14:51;;;;;;;1.45;0.70;;;;;;;;;;5055991;28;20348;-57
2021/08/05 13:17:19;;;;;;;1.30;0.68;;;;;;;;;;5056370;28;20117;-57
2021/08/05 13:19:51;;;;;;;3.10;1.33;;;;;;;;;;5056499;28;20024;-57
2021/08/05 13:22:17;;;;;;;1.20;0.65;;;;;;;;;;5055795;28;20120;-57
2021/08/05 13:24:57;;;;;;;2.38;0.88;;;;;;;;;;5055823;28;20124;-57
2021/08/05 13:27:23;;;;;;;1.60;0.87;;;;;;;;;;5055464;28;20552;-57
2021/08/05 13:29:51;;;;;;;1.58;0.73;;;;;;;;;;5055671;28;20267;-57
2021/08/05 13:32:19;;;;;;;2.10;0.85;;;;;;;;;;5056065;28;20052;-57
2021/08/05 13:34:58;;;;;;;1.95;0.93;;;;;;;;;;5056163;28;20021;-57
2021/08/05 13:37:25;;;;;;;2.83;1.10;;;;;;;;;;5056132;28;20017;-57
2021/08/05 13:39:56;;;;;;;2.47;1.20;;;;;;;;;;5056097;28;20052;-57
2021/08/05 13:42:21;;;;;;;;;;;;;;;;;;5056296;28;20366;-58
2021/08/05 13:44:48;;;;;;;1.38;0.60;;;;;;;;;;5055571;28;19909;-58
2021/08/05 13:47:15;;;;;;;1.38;0.70;;;;;;;;;;5055453;28;20025;-58
2021/08/05 13:49:42;;;;;;;1.80;0.85;;;;;;;;;;5056195;28;20055;-58
2021/08/05 13:52:08;;;;;;;1.45;0.70;;;;;;;;;;5055406;28;20025;-58
2021/08/05 13:54:34;;;;;;;1.17;0.63;;;;;;;;;;5055625;28;20029;-58
2021/08/05 13:57:00;;;;;;;1.42;0.50;;;;;;;;;;5055522;28;20024;-58
2021/08/05 13:59:29;;;;;;;0.88;0.40;;;;;;;;;;5054922;28;20021;-58
2021/08/05 14:01:56;;;;;;;1.33;0.70;;;;;;;;;;5055429;28;20498;-58
2021/08/05 14:04:22;;;;;;;1.42;0.68;;;;;;;;;;5055183;28;20055;-58
2021/08/05 14:06:48;;;;;;;0.90;0.50;;;;;;;;;;5055337;28;20025;-58
2021/08/05 14:09:15;;;;;;;0.95;0.50;;;;;;;;;;5054912;28;20025;-58
2021/08/05 14:11:41;;;;;;;1.05;0.40;;;;;;;;;;5055551;28;20032;-58
2021/08/05 14:14:07;;;;;;;1.95;0.70;;;;;;;;;;5054920;28;20021;-58
2021/08/05 14:16:35;;;;;;;1.15;0.55;;;;;;;;;;5054423;28;20467;-58
2021/08/05 14:19:01;;;;;;;1.63;0.70;;;;;;;;;;5055575;28;20037;-58
2021/08/05 14:21:27;;;;;;;0.73;0.38;;;;;;;;;;5055126;28;20016;-58
2021/08/05 14:23:53;;;;;;;1.30;0.60;;;;;;;;;;5054375;28;20036;-58
2021/08/05 14:26:19;;;;;;;1.70;0.73;;;;;;;;;;5055357;28;20079;-58
2021/08/05 14:28:45;;;;;;;1.67;0.63;;;;;;;;;;5054658;28;20465;-58
2021/08/05 14:31:11;;;;;;;2.58;0.93;;;;;;;;;;5054534;28;20511;-58
2021/08/05 14:33:37;;;;;;;1.05;0.55;;;;;;;;;;5054898;28;20108;-58
2021/08/05 14:36:03;;;;;;;1.70;0.68;;;;;;;;;;5054729;28;20025;-58
2021/08/05 14:38:28;;;;;;;1.48;0.52;;;;;;;;;;5054071;28;20033;-58
2021/08/05 14:40:54;;;;;;;0.85;0.50;;;;;;;;;;5054007;28;20023;-58
2021/08/05 14:43:20;;;;;;;0.90;0.50;;;;;;;;;;5054194;28;20082;-58
2021/08/05 14:45:46;;;;;;;1.83;0.68;;;;;;;;;;5054341;28;20021;-58
2021/08/05 14:48:12;;;;;;;1.60;0.82;;;;;;;;;;5053178;28;20087;-58
2021/08/05 14:50:38;;;;;;;1.85;0.63;;;;;;;;;;5054241;28;20064;-58
2021/08/05 14:53:04;;;;;;;1.58;0.90;;;;;;;;;;5054241;28;20052;-58
2021/08/05 14:55:30;;;;;;;2.38;0.80;;;;;;;;;;5054611;28;20083;-58
2021/08/05 14:57:59;;;;;;;1.00;0.52;;;;;;;;;;5054094;28;20025;-58
2021/08/05 15:00:25;;;;;;;1.55;0.75;;;;;;;;;;5053997;28;20052;-58
2021/08/05 15:02:53;;;;;;;2.17;0.70;;;;;;;;;;5054389;28;20037;-58
2021/08/05 15:05:19;;;;;;;1.85;0.88;;;;;;;;;;5053696;28;20055;-58
2021/08/05 15:07:46;;;;;;;3.72;0.90;;;;;;;;;;5053514;28;20029;-58
2021/08/05 15:10:12;;;;;;;1.67;0.85;;;;;;;;;;5053669;28;20029;-58
2021/08/05 15:12:38;;;;;;;1.40;0.73;;;;;;;;;;5054445;28;20366;-58